Time;durP1;ratioP1;P1;durP2;ratioP2;P2;SDS_P1;SDS_P2;PMS_P1;PMS_P2;Temp;Humidity;BMP_temperature;BMP_pressure;BME280_temperature;BME280_humidity;BME280_pressure;Samples;Min_cycle;Max_cycle;Signal;HPM_P1;HPM_P2
2023/07/26 00:01:59;;;;;;;1.00;0.80;;;24.10;92.50;;;;;;4936543;29;20544;-87
2023/07/26 00:04:26;;;;;;;1.10;0.83;;;24.00;92.50;;;;;;4937041;29;20451;-87
2023/07/26 00:06:52;;;;;;;1.10;0.87;;;24.00;92.50;;;;;;4936339;29;20478;-87
2023/07/26 00:09:21;;;;;;;1.20;1.00;;;24.00;92.70;;;;;;4936473;29;20444;-87
2023/07/26 00:11:47;;;;;;;1.07;0.90;;;24.00;92.80;;;;;;4936626;29;20455;-87
2023/07/26 00:14:17;;;;;;;1.20;0.90;;;24.00;92.80;;;;;;4936360;29;20466;-87
2023/07/26 00:16:43;;;;;;;1.23;0.80;;;24.00;92.60;;;;;;4936682;29;20878;-87
2023/07/26 00:19:10;;;;;;;1.17;0.93;;;24.00;92.90;;;;;;4936429;29;20498;-87
2023/07/26 00:21:38;;;;;;;1.40;1.00;;;24.00;92.60;;;;;;4936276;29;20445;-86
2023/07/26 00:24:05;;;;;;;1.40;1.30;;;24.00;92.40;;;;;;4936170;29;20500;-87
2023/07/26 00:26:33;;;;;;;1.10;0.90;;;24.00;92.40;;;;;;4936394;29;20451;-87
2023/07/26 00:29:00;;;;;;;1.97;1.10;;;24.00;92.40;;;;;;4936231;29;20455;-87
2023/07/26 00:31:27;;;;;;;2.40;1.00;;;24.00;92.40;;;;;;4935733;29;21035;-87
2023/07/26 00:33:55;;;;;;;1.20;1.10;;;24.00;92.40;;;;;;4936283;29;20451;-87
2023/07/26 00:36:22;;;;;;;1.20;0.90;;;24.00;92.30;;;;;;4931868;29;20446;-87
2023/07/26 00:38:48;;;;;;;1.30;1.00;;;24.00;92.30;;;;;;4936283;29;20449;-87
2023/07/26 00:41:15;;;;;;;1.50;0.90;;;24.00;92.40;;;;;;4936039;29;20448;-87
2023/07/26 00:43:43;;;;;;;1.10;0.93;;;23.90;92.30;;;;;;4935988;29;20578;-86
2023/07/26 00:46:10;;;;;;;1.10;1.00;;;23.90;92.30;;;;;;4936237;29;20450;-87
2023/07/26 00:48:37;;;;;;;1.20;0.93;;;24.00;92.40;;;;;;4936172;29;20878;-87
2023/07/26 00:51:05;;;;;;;1.30;1.13;;;23.90;92.30;;;;;;4936189;29;20446;-87
2023/07/26 00:53:33;;;;;;;1.10;0.87;;;23.90;92.40;;;;;;4936010;29;20454;-87
2023/07/26 00:55:59;;;;;;;1.10;0.90;;;23.90;92.20;;;;;;4935951;29;20461;-87
2023/07/26 00:58:26;;;;;;;1.17;0.87;;;23.90;92.70;;;;;;4936156;29;20446;-87
2023/07/26 01:00:55;;;;;;;1.20;1.10;;;23.90;92.30;;;;;;4936096;29;20449;-87
2023/07/26 01:03:22;;;;;;;1.13;0.97;;;23.90;92.20;;;;;;4935639;29;20494;-87
2023/07/26 01:06:00;;;;;;;1.20;0.90;;;23.90;92.30;;;;;;4935966;29;20498;-87
2023/07/26 01:08:38;;;;;;;1.10;0.90;;;23.90;92.30;;;;;;4935701;29;21093;-87
2023/07/26 01:11:11;;;;;;;1.00;0.87;;;23.90;92.30;;;;;;4936056;29;20438;-87
2023/07/26 01:13:45;;;;;;;1.10;0.90;;;23.90;92.20;;;;;;4936059;29;20468;-88
2023/07/26 01:16:14;;;;;;;1.27;0.97;;;23.90;92.20;;;;;;4936262;29;20449;-87
2023/07/26 01:18:41;;;;;;;1.10;0.80;;;23.90;92.20;;;;;;4935823;29;20502;-87
2023/07/26 01:21:08;;;;;;;2.03;0.90;;;23.90;92.20;;;;;;4936035;29;20450;-87
2023/07/26 01:23:38;;;;;;;1.23;0.83;;;23.90;92.20;;;;;;4935643;29;20584;-87
2023/07/26 01:26:05;;;;;;;1.30;0.97;;;23.90;92.30;;;;;;4935953;29;20443;-87
2023/07/26 01:28:31;;;;;;;1.13;0.93;;;23.90;92.20;;;;;;4935755;29;20443;-87
2023/07/26 01:31:00;;;;;;;1.07;0.87;;;23.90;92.40;;;;;;4935515;29;20472;-87
2023/07/26 01:33:29;;;;;;;1.20;0.90;;;23.90;92.30;;;;;;4935701;29;20540;-87
2023/07/26 01:35:57;;;;;;;1.40;1.07;;;23.90;92.30;;;;;;4935727;29;20450;-88
2023/07/26 01:38:25;;;;;;;1.70;0.90;;;23.90;92.30;;;;;;4935472;29;20942;-87
2023/07/26 01:40:55;;;;;;;1.17;1.00;;;23.90;92.30;;;;;;4935479;29;20458;-88
2023/07/26 01:43:22;;;;;;;1.10;1.00;;;23.90;92.30;;;;;;4936562;29;21072;-87
2023/07/26 01:45:49;;;;;;;1.10;1.00;;;23.90;92.40;;;;;;4939312;29;20795;-87
2023/07/26 01:48:15;;;;;;;2.10;1.30;;;23.90;92.30;;;;;;4939017;29;20952;-87
2023/07/26 01:50:42;;;;;;;1.50;1.20;;;24.00;92.30;;;;;;4939468;29;20542;-87
2023/07/26 01:53:09;;;;;;;1.20;0.90;;;23.90;92.20;;;;;;4938960;29;20450;-87
2023/07/26 01:55:36;;;;;;;1.10;0.80;;;23.90;92.20;;;;;;4939091;29;20554;-87
2023/07/26 01:58:04;;;;;;;1.10;0.90;;;23.90;92.20;;;;;;4938862;29;20450;-88
2023/07/26 02:00:31;;;;;;;1.07;0.80;;;23.90;92.40;;;;;;4939016;29;20528;-87
2023/07/26 02:02:58;;;;;;;1.10;0.97;;;23.90;92.30;;;;;;4938515;29;20570;-87
2023/07/26 02:05:25;;;;;;;1.10;0.87;;;23.90;92.30;;;;;;4938503;29;20927;-88
2023/07/26 02:07:52;;;;;;;1.20;0.97;;;23.90;92.40;;;;;;4938510;29;20516;-87
2023/07/26 02:10:19;;;;;;;1.20;0.97;;;23.80;92.40;;;;;;4938628;29;20443;-87
2023/07/26 02:12:46;;;;;;;1.20;1.10;;;23.90;92.30;;;;;;4938944;29;20447;-87
2023/07/26 02:15:14;;;;;;;1.20;1.00;;;23.90;92.30;;;;;;4938572;29;20814;-87
2023/07/26 02:17:41;;;;;;;1.00;0.73;;;23.90;92.40;;;;;;4938261;29;20489;-87
2023/07/26 02:20:09;;;;;;;1.10;1.00;;;23.90;92.40;;;;;;4938349;29;20455;-87
2023/07/26 02:22:35;;;;;;;1.23;1.07;;;23.90;92.40;;;;;;4938399;29;20477;-87
2023/07/26 02:25:03;;;;;;;1.20;0.90;;;23.80;92.40;;;;;;4938142;29;20443;-87
2023/07/26 02:27:29;;;;;;;1.20;0.90;;;23.90;92.30;;;;;;4938059;29;20453;-87
2023/07/26 02:29:56;;;;;;;1.03;0.83;;;24.00;92.40;;;;;;4938186;29;20450;-87
2023/07/26 02:32:24;;;;;;;1.10;0.90;;;23.80;92.20;;;;;;4938074;29;20866;-87
2023/07/26 02:34:51;;;;;;;1.10;0.90;;;23.80;92.20;;;;;;4938063;29;20454;-87
2023/07/26 02:37:18;;;;;;;3.53;1.13;;;23.90;92.20;;;;;;4938278;29;20452;-87
2023/07/26 02:39:45;;;;;;;1.10;0.90;;;23.90;92.30;;;;;;4937879;29;20447;-87
2023/07/26 02:42:11;;;;;;;1.10;0.90;;;23.90;92.40;;;;;;4938139;29;20447;-88
2023/07/26 02:44:38;;;;;;;1.40;1.07;;;23.80;92.30;;;;;;4937897;29;20501;-88
2023/07/26 02:47:05;;;;;;;1.20;1.00;;;24.00;92.40;;;;;;4938123;29;20453;-87
2023/07/26 02:49:34;;;;;;;1.10;0.90;;;23.80;92.30;;;;;;4937777;29;20453;-87
2023/07/26 02:52:00;;;;;;;1.10;1.00;;;23.80;92.40;;;;;;4937911;29;20450;-87
2023/07/26 02:54:28;;;;;;;1.20;1.10;;;23.80;92.40;;;;;;4937260;29;20446;-87
2023/07/26 02:56:55;;;;;;;1.83;0.80;;;23.80;92.50;;;;;;4937992;29;20800;-88
2023/07/26 02:59:22;;;;;;;1.13;0.87;;;23.80;92.60;;;;;;4937779;29;20492;-89
2023/07/26 03:01:49;;;;;;;2.27;1.50;;;23.80;92.50;;;;;;4937796;29;20482;-87
2023/07/26 03:04:19;;;;;;;1.20;0.93;;;23.80;92.50;;;;;;4937408;29;20490;-87
2023/07/26 03:06:47;;;;;;;1.57;0.93;;;23.80;92.50;;;;;;4937390;29;20879;-88
2023/07/26 03:09:14;;;;;;;1.00;0.80;;;23.80;92.40;;;;;;4937457;29;20793;-88
2023/07/26 03:11:41;;;;;;;1.10;0.90;;;23.80;92.60;;;;;;4937487;29;20437;-87
2023/07/26 03:14:08;;;;;;;1.10;0.90;;;23.80;92.50;;;;;;4937214;29;20471;-87
2023/07/26 03:16:35;;;;;;;1.47;1.03;;;23.80;92.50;;;;;;4937388;29;20442;-87
2023/07/26 03:19:01;;;;;;;1.40;1.13;;;23.80;92.40;;;;;;4937143;29;20536;-88
2023/07/26 03:21:28;;;;;;;1.20;1.10;;;23.80;92.40;;;;;;4937069;29;20453;-87
2023/07/26 03:23:56;;;;;;;1.10;0.90;;;23.80;92.40;;;;;;4937099;29;20582;-87
2023/07/26 03:26:23;;;;;;;1.30;0.90;;;23.80;92.40;;;;;;4937248;29;20454;-88
2023/07/26 03:28:50;;;;;;;1.30;0.90;;;23.80;92.40;;;;;;4937267;29;20441;-88
2023/07/26 03:31:17;;;;;;;1.30;1.03;;;23.90;92.40;;;;;;4936748;29;20469;-88
2023/07/26 03:33:43;;;;;;;1.23;1.10;;;23.80;92.40;;;;;;4936700;29;20460;-87
2023/07/26 03:36:10;;;;;;;1.10;1.00;;;23.80;92.40;;;;;;4936838;29;20449;-87
2023/07/26 03:38:37;;;;;;;1.50;0.97;;;23.80;92.30;;;;;;4936734;29;20446;-88
2023/07/26 03:41:05;;;;;;;1.37;1.10;;;23.80;92.40;;;;;;4936752;29;20441;-87
2023/07/26 03:43:32;;;;;;;1.20;1.10;;;23.80;92.40;;;;;;4936434;29;20493;-88
2023/07/26 03:45:59;;;;;;;1.20;1.10;;;23.80;92.40;;;;;;4936598;29;20446;-87
2023/07/26 03:48:26;;;;;;;1.00;0.87;;;23.80;92.40;;;;;;4936424;29;20454;-87
2023/07/26 03:50:53;;;;;;;1.00;0.90;;;23.80;92.40;;;;;;4936551;29;20447;-87
2023/07/26 03:53:20;;;;;;;1.27;1.00;;;23.80;92.40;;;;;;4936498;29;20446;-87
2023/07/26 03:55:47;;;;;;;1.10;0.80;;;23.80;92.50;;;;;;4936358;29;21005;-87
2023/07/26 03:58:15;;;;;;;1.00;0.80;;;23.80;92.60;;;;;;4936392;29;20963;-86
2023/07/26 04:00:42;;;;;;;1.10;0.93;;;23.80;92.40;;;;;;4936700;29;20446;-87
2023/07/26 04:03:08;;;;;;;1.10;0.90;;;23.80;92.50;;;;;;4936359;29;20460;-87
2023/07/26 04:05:35;;;;;;;1.10;1.00;;;23.80;92.40;;;;;;4935968;29;20448;-87
2023/07/26 04:08:02;;;;;;;1.00;0.80;;;23.80;92.50;;;;;;4936263;29;20486;-87
2023/07/26 04:10:29;;;;;;;1.53;1.00;;;23.80;92.40;;;;;;4936492;29;20949;-88
2023/07/26 04:12:55;;;;;;;1.30;0.87;;;23.80;92.40;;;;;;4936469;29;20492;-88
2023/07/26 04:15:24;;;;;;;1.00;0.70;;;23.80;92.40;;;;;;4936620;29;20944;-87
2023/07/26 04:17:50;;;;;;;1.30;0.97;;;23.80;92.40;;;;;;4936435;29;20473;-87
2023/07/26 04:20:17;;;;;;;1.60;0.83;;;23.80;92.40;;;;;;4936488;29;20465;-87
2023/07/26 04:22:44;;;;;;;1.10;0.93;;;23.80;92.30;;;;;;4936252;29;20448;-87
2023/07/26 04:25:11;;;;;;;1.10;0.90;;;23.80;92.40;;;;;;4936277;29;20497;-87
2023/07/26 04:27:38;;;;;;;1.17;0.90;;;23.80;92.30;;;;;;4936264;29;20950;-87
2023/07/26 04:30:06;;;;;;;1.20;0.90;;;23.90;92.40;;;;;;4936194;29;20458;-88
2023/07/26 04:32:34;;;;;;;1.10;0.97;;;23.80;92.40;;;;;;4936329;29;20450;-87
2023/07/26 04:35:00;;;;;;;1.10;0.90;;;23.90;92.50;;;;;;4936135;29;20451;-88
2023/07/26 04:37:27;;;;;;;1.07;0.87;;;23.80;92.70;;;;;;4936253;29;20453;-87
2023/07/26 04:39:54;;;;;;;1.17;0.97;;;23.80;92.40;;;;;;4936253;29;20464;-87
2023/07/26 04:42:21;;;;;;;1.13;0.87;;;23.80;92.50;;;;;;4936217;29;20448;-87
2023/07/26 04:44:48;;;;;;;1.20;1.00;;;23.80;92.40;;;;;;4936003;29;20505;-87
2023/07/26 04:47:15;;;;;;;1.47;1.20;;;23.80;92.40;;;;;;4936046;29;20459;-87
2023/07/26 04:49:43;;;;;;;2.03;0.90;;;23.80;92.40;;;;;;4936232;29;20454;-87
2023/07/26 04:52:10;;;;;;;2.27;1.30;;;23.80;92.40;;;;;;4943248;29;20467;-87
2023/07/26 04:54:37;;;;;;;2.10;1.23;;;23.80;92.50;;;;;;4940686;29;20957;-87
2023/07/26 04:57:04;;;;;;;2.40;2.20;;;23.70;92.40;;;;;;4935879;29;20451;-86
2023/07/26 04:59:31;;;;;;;2.60;2.33;;;23.80;92.00;;;;;;4935957;29;20831;-87
2023/07/26 05:01:57;;;;;;;3.43;2.63;;;23.80;91.60;;;;;;4935917;29;20458;-87
2023/07/26 05:04:24;;;;;;;2.80;2.60;;;23.60;91.50;;;;;;4917065;29;21072;-87
2023/07/26 05:06:52;;;;;;;2.40;2.20;;;23.40;91.60;;;;;;4916751;29;20818;-86
2023/07/26 05:09:19;;;;;;;7.93;2.80;;;23.30;91.70;;;;;;4936949;29;20787;-87
2023/07/26 05:11:46;;;;;;;4.23;3.00;;;23.20;91.90;;;;;;4935561;29;20535;-88
2023/07/26 05:14:13;;;;;;;2.87;2.67;;;23.10;92.10;;;;;;4935666;29;20461;-88
2023/07/26 05:16:39;;;;;;;3.83;2.60;;;23.00;92.10;;;;;;4936127;29;20465;-87
2023/07/26 05:19:06;;;;;;;2.90;2.70;;;23.00;92.20;;;;;;4928826;29;20444;-87
2023/07/26 05:21:33;;;;;;;3.33;2.70;;;22.90;92.20;;;;;;4939689;29;20454;-87
2023/07/26 05:24:01;;;;;;;2.37;2.00;;;22.90;92.40;;;;;;4939564;29;20579;-87
2023/07/26 05:26:28;;;;;;;7.33;2.50;;;22.80;92.30;;;;;;4939351;29;20478;-87
2023/07/26 05:28:55;;;;;;;4.63;2.03;;;22.70;92.40;;;;;;4938614;29;20453;-87
2023/07/26 05:31:22;;;;;;;2.50;2.30;;;22.70;92.30;;;;;;4938970;29;20453;-87
2023/07/26 05:33:49;;;;;;;5.03;2.30;;;22.60;92.40;;;;;;4939474;29;20535;-87
2023/07/26 05:36:15;;;;;;;5.07;2.23;;;22.60;92.50;;;;;;4938916;29;21004;-88
2023/07/26 05:38:42;;;;;;;2.73;1.90;;;22.50;92.40;;;;;;4938946;29;20544;-86
2023/07/26 05:41:10;;;;;;;2.53;2.00;;;22.50;92.20;;;;;;4939365;29;20446;-85
2023/07/26 05:43:37;;;;;;;2.90;2.17;;;22.50;92.30;;;;;;4939095;29;20475;-86
2023/07/26 05:46:04;;;;;;;2.93;1.90;;;22.50;92.60;;;;;;4922804;29;21647;-86
2023/07/26 05:48:31;;;;;;;2.40;2.20;;;22.40;92.60;;;;;;4917810;29;20444;-86
2023/07/26 05:50:58;;;;;;;1.60;1.50;;;22.40;92.60;;;;;;4918128;29;20455;-86
2023/07/26 05:53:24;;;;;;;3.30;1.90;;;22.30;92.90;;;;;;4918269;29;20458;-86
2023/07/26 05:55:51;;;;;;;1.70;1.60;;;22.30;93.30;;;;;;4918126;29;20977;-86
2023/07/26 05:58:19;;;;;;;2.67;1.40;;;22.30;93.70;;;;;;4917201;29;20448;-85
2023/07/26 06:00:46;;;;;;;1.73;1.63;;;22.30;94.00;;;;;;4916371;29;21145;-85
2023/07/26 06:03:13;;;;;;;2.90;1.60;;;22.30;94.10;;;;;;4916772;29;20816;-85
2023/07/26 06:05:41;;;;;;;1.73;1.33;;;22.40;94.20;;;;;;4917468;29;21031;-85
2023/07/26 06:08:07;;;;;;;2.37;1.90;;;22.40;94.60;;;;;;4917431;29;20485;-86
2023/07/26 06:10:34;;;;;;;1.97;1.37;;;22.60;94.70;;;;;;4917410;29;20502;-85
2023/07/26 06:13:01;;;;;;;2.17;1.20;;;22.70;94.60;;;;;;4917798;29;20452;-85
2023/07/26 06:15:29;;;;;;;4.07;1.30;;;22.80;94.80;;;;;;4919238;29;20619;-85
2023/07/26 06:17:56;;;;;;;8.50;1.60;;;22.90;94.40;;;;;;4919088;29;20449;-85
2023/07/26 06:20:23;;;;;;;2.50;1.77;;;22.90;94.00;;;;;;4918955;29;20464;-86
2023/07/26 06:22:49;;;;;;;2.47;1.93;;;22.90;93.70;;;;;;4919121;29;20443;-85
2023/07/26 06:25:16;;;;;;;3.30;1.70;;;22.90;94.40;;;;;;4918983;29;20490;-85
2023/07/26 06:27:43;;;;;;;5.57;1.67;;;22.90;94.00;;;;;;4919013;29;20446;-85
2023/07/26 06:30:12;;;;;;;7.73;2.33;;;22.90;94.60;;;;;;4918263;29;20489;-86
2023/07/26 06:32:40;;;;;;;5.10;2.07;;;23.00;94.40;;;;;;4918989;29;20446;-86
2023/07/26 06:35:08;;;;;;;2.57;1.43;;;23.00;94.60;;;;;;4918865;29;20453;-86
2023/07/26 06:37:35;;;;;;;3.80;1.50;;;23.10;94.40;;;;;;4918673;29;20534;-86
2023/07/26 06:40:03;;;;;;;2.17;1.30;;;23.10;94.40;;;;;;4918769;29;20447;-84
2023/07/26 06:42:30;;;;;;;3.83;1.60;;;23.20;94.60;;;;;;4918777;29;20450;-85
2023/07/26 06:44:57;;;;;;;4.03;1.23;;;23.20;94.50;;;;;;4918830;29;20491;-86
2023/07/26 06:47:23;;;;;;;4.70;1.57;;;23.20;94.60;;;;;;4918769;29;20532;-86
2023/07/26 06:49:52;;;;;;;3.70;1.97;;;23.30;94.60;;;;;;4918588;29;20453;-87
2023/07/26 06:52:18;;;;;;;4.87;1.50;;;23.30;94.40;;;;;;4918494;29;20528;-86
2023/07/26 06:54:45;;;;;;;2.33;1.80;;;23.30;94.00;;;;;;4918504;29;20537;-86
2023/07/26 06:57:12;;;;;;;2.40;1.77;;;23.30;94.00;;;;;;4918473;29;20450;-86
2023/07/26 06:59:39;;;;;;;3.80;1.37;;;23.40;94.00;;;;;;4918386;29;20449;-87
2023/07/26 07:02:06;;;;;;;2.20;1.50;;;23.40;94.10;;;;;;4918444;29;20445;-87
2023/07/26 07:04:34;;;;;;;3.30;2.10;;;23.40;94.30;;;;;;4917879;29;20488;-87
2023/07/26 07:07:02;;;;;;;4.47;1.77;;;23.40;94.10;;;;;;4918181;29;20522;-87
2023/07/26 07:09:30;;;;;;;4.20;1.90;;;23.40;94.60;;;;;;4918341;29;20811;-86
2023/07/26 07:11:56;;;;;;;1.60;1.50;;;23.40;94.00;;;;;;4918102;29;20454;-87
2023/07/26 07:14:23;;;;;;;2.03;1.40;;;23.50;94.00;;;;;;4918332;29;20462;-87
2023/07/26 07:16:50;;;;;;;4.40;1.40;;;23.50;94.10;;;;;;4918177;29;20453;-87
2023/07/26 07:19:20;;;;;;;2.30;1.50;;;23.40;94.30;;;;;;4918276;29;20448;-87
2023/07/26 07:21:46;;;;;;;1.60;1.23;;;23.50;94.50;;;;;;4917992;29;20472;-87
2023/07/26 07:24:14;;;;;;;3.73;1.67;;;23.50;94.70;;;;;;4918003;29;20955;-87
2023/07/26 07:26:41;;;;;;;2.23;1.63;;;23.60;95.00;;;;;;4918057;29;20976;-87
2023/07/26 07:29:08;;;;;;;2.00;1.33;;;23.60;94.90;;;;;;4917797;29;20446;-87
2023/07/26 07:31:35;;;;;;;2.67;2.43;;;23.60;94.80;;;;;;4917862;29;20472;-87
2023/07/26 07:34:01;;;;;;;3.00;2.10;;;23.60;95.00;;;;;;4917883;29;20805;-87
2023/07/26 07:36:27;;;;;;;3.80;2.70;;;23.50;94.50;;;;;;4917686;29;20452;-87
2023/07/26 07:38:54;;;;;;;5.30;2.57;;;23.50;94.90;;;;;;4917802;29;20942;-87
2023/07/26 07:41:22;;;;;;;4.27;2.10;;;23.50;95.00;;;;;;4916835;29;20446;-86
2023/07/26 07:43:49;;;;;;;2.63;2.43;;;23.50;95.10;;;;;;4917719;29;20447;-86
2023/07/26 07:46:16;;;;;;;1.87;1.60;;;23.50;95.00;;;;;;4917552;29;20492;-87
2023/07/26 07:48:43;;;;;;;2.03;1.57;;;23.60;94.30;;;;;;4917429;29;20445;-87
2023/07/26 07:51:09;;;;;;;1.60;1.50;;;23.60;94.50;;;;;;4917676;29;20961;-87
2023/07/26 07:53:36;;;;;;;2.00;1.67;;;23.60;94.30;;;;;;4917572;29;20447;-87
2023/07/26 07:56:03;;;;;;;2.70;2.43;;;23.60;94.50;;;;;;4917596;29;20460;-86
2023/07/26 07:58:31;;;;;;;3.57;1.97;;;23.60;94.50;;;;;;4917387;29;20455;-87
2023/07/26 08:00:59;;;;;;;1.93;1.77;;;23.70;94.60;;;;;;4917411;29;20444;-87
2023/07/26 08:03:26;;;;;;;2.17;1.30;;;23.70;95.00;;;;;;4917500;29;20445;-87
2023/07/26 08:05:53;;;;;;;2.90;1.77;;;23.80;95.00;;;;;;4917255;29;20491;-87
2023/07/26 08:08:20;;;;;;;3.10;1.70;;;23.70;94.90;;;;;;4917129;29;20479;-86
2023/07/26 08:10:46;;;;;;;2.47;1.80;;;23.70;95.00;;;;;;4917228;29;20447;-87
2023/07/26 08:13:13;;;;;;;2.90;1.30;;;23.70;95.10;;;;;;4917125;29;20459;-87
2023/07/26 08:15:41;;;;;;;1.60;1.50;;;23.70;94.40;;;;;;4917224;29;20451;-86
2023/07/26 08:18:09;;;;;;;2.30;2.10;;;23.80;94.70;;;;;;4916929;29;20446;-86
2023/07/26 08:20:36;;;;;;;1.63;1.47;;;23.80;95.10;;;;;;4917188;29;20446;-86
2023/07/26 08:23:04;;;;;;;1.83;1.60;;;23.80;95.40;;;;;;4917214;29;20815;-86
2023/07/26 08:25:31;;;;;;;1.97;1.57;;;23.80;95.50;;;;;;4916960;29;20848;-87
2023/07/26 08:27:57;;;;;;;3.00;1.50;;;23.80;95.40;;;;;;4917031;29;20466;-87
2023/07/26 08:30:24;;;;;;;4.33;1.20;;;23.80;95.60;;;;;;4916874;29;20449;-87
2023/07/26 08:32:52;;;;;;;2.17;1.67;;;23.80;95.60;;;;;;4917017;29;20453;-86
2023/07/26 08:35:19;;;;;;;1.77;1.63;;;23.80;95.60;;;;;;4917093;29;20506;-86
2023/07/26 08:37:46;;;;;;;1.70;1.50;;;23.80;95.90;;;;;;4916865;29;20444;-87
2023/07/26 08:40:14;;;;;;;2.50;1.50;;;23.90;90.30;;;;;;4916782;29;20455;-87
2023/07/26 08:42:41;;;;;;;1.53;1.27;;;23.80;90.40;;;;;;4917029;29;20450;-88
2023/07/26 08:45:09;;;;;;;1.43;1.30;;;23.80;90.50;;;;;;4916977;29;20482;-86
2023/07/26 08:47:37;;;;;;;1.93;1.40;;;23.90;90.70;;;;;;4916813;29;20447;-86
2023/07/26 08:50:07;;;;;;;1.80;1.40;;;23.90;91.00;;;;;;4917041;29;20965;-86
2023/07/26 08:52:34;;;;;;;1.50;1.40;;;23.80;91.30;;;;;;4918654;29;20447;-86
2023/07/26 08:55:01;;;;;;;1.87;1.70;;;23.90;91.60;;;;;;4920895;29;20966;-86
2023/07/26 08:57:28;;;;;;;1.83;1.60;;;23.90;91.70;;;;;;4920448;29;20458;-86
2023/07/26 08:59:55;;;;;;;2.13;1.90;;;23.90;91.70;;;;;;4920521;29;20447;-86
2023/07/26 09:02:23;;;;;;;2.00;1.80;;;23.90;91.80;;;;;;4920621;29;20447;-86
2023/07/26 09:04:50;;;;;;;1.97;1.60;;;24.00;91.90;;;;;;4920601;29;20451;-86
2023/07/26 09:07:18;;;;;;;1.93;1.60;;;23.90;91.70;;;;;;4920306;29;20482;-86
2023/07/26 09:09:45;;;;;;;2.67;2.47;;;23.90;91.20;;;;;;4920409;29;20443;-86
2023/07/26 09:12:24;;;;;;;2.90;2.63;;;24.00;91.30;;;;;;4920307;29;20449;-86
2023/07/26 09:14:54;;;;;;;2.53;2.33;;;24.00;91.00;;;;;;4920425;29;20443;-86
2023/07/26 09:17:21;;;;;;;2.50;2.30;;;23.80;91.10;;;;;;4920279;29;20454;-86
2023/07/26 09:19:51;;;;;;;3.40;2.73;;;23.90;91.10;;;;;;4920283;29;20454;-86
2023/07/26 09:22:19;;;;;;;3.60;2.50;;;23.90;91.70;;;;;;4920255;29;20443;-86
2023/07/26 09:24:50;;;;;;;3.03;2.83;;;23.90;91.00;;;;;;4919968;29;20439;-86
2023/07/26 09:27:17;;;;;;;6.50;3.60;;;23.80;90.60;;;;;;4920176;29;20435;-86
2023/07/26 09:29:55;;;;;;;4.17;3.77;;;23.80;90.10;;;;;;4920063;29;20467;-86
2023/07/26 09:32:28;;;;;;;4.23;3.93;;;23.80;89.20;;;;;;4920009;29;20462;-86
2023/07/26 09:34:59;;;;;;;7.10;4.10;;;23.80;88.60;;;;;;4919996;29;20484;-86
2023/07/26 09:37:28;;;;;;;3.83;3.40;;;23.80;89.30;;;;;;4919957;29;20450;-86
2023/07/26 09:39:54;;;;;;;4.43;3.03;;;23.80;89.30;;;;;;4919860;29;20447;-86
2023/07/26 09:42:21;;;;;;;2.60;2.40;;;23.80;89.50;;;;;;4919908;29;20475;-87
2023/07/26 09:44:56;;;;;;;6.37;2.80;;;23.80;90.00;;;;;;4919904;29;21001;-86
2023/07/26 09:47:34;;;;;;;2.80;2.33;;;23.70;90.20;;;;;;4919864;29;20450;-86
2023/07/26 09:50:01;;;;;;;4.23;2.17;;;23.70;90.10;;;;;;4919937;29;20453;-86
2023/07/26 09:52:30;;;;;;;1.60;1.50;;;23.60;89.50;;;;;;4919668;29;20457;-86
2023/07/26 09:54:59;;;;;;;2.10;1.50;;;23.60;90.10;;;;;;4919758;29;20447;-87
2023/07/26 09:57:27;;;;;;;4.10;2.07;;;23.50;90.30;;;;;;4919260;29;20455;-86
2023/07/26 09:59:59;;;;;;;1.67;1.57;;;23.40;90.40;;;;;;4919604;29;20454;-87
2023/07/26 10:02:26;;;;;;;2.43;1.63;;;23.40;90.50;;;;;;4919617;29;20449;-87
2023/07/26 10:04:58;;;;;;;3.07;1.97;;;23.30;90.60;;;;;;4918514;29;20448;-86
2023/07/26 10:07:26;;;;;;;2.47;1.80;;;23.20;90.70;;;;;;4919192;29;20496;-86
2023/07/26 10:09:58;;;;;;;2.60;1.93;;;23.30;90.70;;;;;;4919252;29;20537;-86
2023/07/26 10:12:26;;;;;;;2.80;2.13;;;23.10;90.80;;;;;;4919452;29;20540;-86
2023/07/26 10:14:56;;;;;;;2.23;1.67;;;23.10;90.90;;;;;;4919160;29;20516;-87
2023/07/26 10:17:25;;;;;;;2.50;2.10;;;23.20;90.80;;;;;;4919174;29;20936;-86
2023/07/26 10:19:53;;;;;;;2.00;1.47;;;23.10;90.80;;;;;;4919404;29;20543;-87
2023/07/26 10:22:21;;;;;;;2.23;1.90;;;23.10;91.00;;;;;;4919175;29;20456;-87
2023/07/26 10:24:48;;;;;;;3.40;1.90;;;23.10;90.90;;;;;;4919120;29;20522;-87
2023/07/26 10:27:17;;;;;;;4.10;2.60;;;23.00;90.80;;;;;;4918961;29;20530;-87
2023/07/26 10:29:44;;;;;;;2.40;2.20;;;23.00;90.90;;;;;;4919187;29;20451;-87
2023/07/26 10:32:11;;;;;;;14.63;2.27;;;22.90;91.30;;;;;;4919020;29;20451;-86
2023/07/26 10:34:38;;;;;;;2.03;1.60;;;23.00;91.50;;;;;;4918965;29;21013;-87
2023/07/26 10:37:15;;;;;;;2.20;2.10;;;22.90;91.40;;;;;;4918814;29;21035;-86
2023/07/26 10:39:42;;;;;;;2.10;1.77;;;22.90;91.50;;;;;;4918700;29;20446;-86
2023/07/26 10:42:24;;;;;;;3.30;2.07;;;22.90;91.60;;;;;;4918814;29;20537;-87
2023/07/26 10:44:51;;;;;;;3.40;1.80;;;22.90;91.50;;;;;;4918903;29;20462;-87
2023/07/26 10:47:17;;;;;;;3.83;1.73;;;22.90;92.10;;;;;;4918765;29;20498;-86
2023/07/26 10:49:46;;;;;;;3.10;2.00;;;22.90;92.40;;;;;;4918661;29;20980;-86
2023/07/26 10:52:14;;;;;;;2.10;1.53;;;23.00;92.90;;;;;;4918701;29;21016;-85
2023/07/26 10:54:42;;;;;;;2.00;1.90;;;23.00;93.20;;;;;;4920678;29;20449;-85
2023/07/26 10:57:20;;;;;;;1.77;1.67;;;23.10;93.00;;;;;;4925965;29;20452;-86
2023/07/26 10:59:55;;;;;;;1.87;1.70;;;23.20;92.80;;;;;;4932215;29;20451;-86
2023/07/26 11:02:45;;;;;;;2.47;2.27;;;23.20;92.80;;;;;;4936298;29;20507;-87
2023/07/26 11:05:14;;;;;;;2.13;1.60;;;23.30;92.80;;;;;;4932375;29;20997;-87
2023/07/26 11:07:53;;;;;;;1.87;1.63;;;23.40;92.10;;;;;;4933380;29;20891;-89
2023/07/26 11:10:22;;;;;;;1.90;1.70;;;23.40;92.10;;;;;;4936833;29;20466;-89
2023/07/26 11:13:04;;;;;;;2.17;1.73;;;23.50;91.90;;;;;;4936813;29;20814;-89
2023/07/26 11:15:33;;;;;;;2.07;1.30;;;23.60;91.90;;;;;;4947971;29;20971;-89
2023/07/26 11:18:00;;;;;;;1.97;1.50;;;23.60;91.70;;;;;;4934148;29;20453;-88
2023/07/26 11:20:47;;;;;;;1.70;1.50;;;23.60;91.80;;;;;;5130343;27;20520;-88
2023/07/26 11:23:19;;;;;;;2.13;1.93;;;23.70;92.00;;;;;;5110898;28;20434;-88
2023/07/26 11:25:46;;;;;;;1.60;1.50;;;23.70;92.00;;;;;;5096678;28;20456;-88
2023/07/26 11:28:16;;;;;;;2.57;1.37;;;23.70;92.30;;;;;;5090429;28;20539;-88
2023/07/26 11:30:47;;;;;;;1.93;1.80;;;23.80;91.90;;;;;;5090709;28;20448;-87
2023/07/26 11:33:25;;;;;;;3.17;1.30;;;23.80;91.90;;;;;;5090561;28;20455;-88
2023/07/26 11:35:53;;;;;;;1.50;1.40;;;23.80;91.90;;;;;;5090263;28;20441;-88
2023/07/26 11:38:20;;;;;;;1.87;1.50;;;23.80;92.00;;;;;;5090348;28;20448;-88
2023/07/26 11:40:47;;;;;;;2.77;1.80;;;23.90;92.10;;;;;;5090473;28;20509;-88
2023/07/26 11:43:14;;;;;;;3.17;1.63;;;23.90;92.40;;;;;;5091633;28;20453;-87
2023/07/26 11:45:44;;;;;;;3.07;1.80;;;24.00;92.50;;;;;;5093735;28;20452;-87
2023/07/26 11:48:14;;;;;;;2.63;2.20;;;24.00;92.60;;;;;;5092740;28;20441;-87
2023/07/26 11:50:42;;;;;;;1.60;1.50;;;24.00;92.40;;;;;;5093271;28;20509;-90
2023/07/26 11:53:12;;;;;;;2.23;1.87;;;24.10;92.40;;;;;;5093187;28;20496;-87
2023/07/26 11:55:41;;;;;;;1.67;1.27;;;24.10;92.30;;;;;;5092882;28;20500;-86
2023/07/26 11:58:10;;;;;;;5.23;1.50;;;24.10;92.40;;;;;;5092229;28;20451;-87
2023/07/26 12:00:39;;;;;;;5.33;1.50;;;24.10;92.40;;;;;;5091922;28;20493;-87
2023/07/26 12:03:08;;;;;;;1.80;1.20;;;24.10;92.70;;;;;;5090857;28;20511;-86
2023/07/26 12:05:35;;;;;;;1.53;1.33;;;24.10;92.60;;;;;;5091689;28;20445;-86
2023/07/26 12:08:06;;;;;;;3.17;1.40;;;24.10;92.50;;;;;;5092726;28;20474;-87
2023/07/26 12:10:37;;;;;;;1.60;1.50;;;24.20;92.50;;;;;;5091595;28;20454;-87
2023/07/26 12:13:08;;;;;;;1.23;1.13;;;24.20;92.50;;;;;;5091062;28;20436;-86
2023/07/26 12:15:50;;;;;;;2.00;1.50;;;24.20;92.60;;;;;;5091164;28;20440;-86
2023/07/26 12:18:18;;;;;;;2.53;1.37;;;24.10;92.70;;;;;;5091442;28;20449;-86
2023/07/26 12:20:56;;;;;;;1.87;1.67;;;24.20;92.50;;;;;;5073114;28;20566;-86
2023/07/26 12:23:23;;;;;;;3.63;1.50;;;24.20;92.70;;;;;;5091241;28;20474;-87
2023/07/26 12:25:57;;;;;;;1.67;1.57;;;24.10;92.70;;;;;;5091297;28;20958;-89
2023/07/26 12:28:24;;;;;;;2.00;1.80;;;24.20;92.80;;;;;;5091577;28;20529;-86
2023/07/26 12:30:55;;;;;;;2.33;1.23;;;24.20;93.00;;;;;;5084253;28;20512;-90
2023/07/26 12:33:23;;;;;;;2.60;1.83;;;24.20;92.90;;;;;;5077421;28;20541;-88
2023/07/26 12:35:52;;;;;;;1.77;1.50;;;24.20;92.70;;;;;;5078483;28;20472;-86
2023/07/26 12:38:21;;;;;;;1.90;1.70;;;24.20;92.50;;;;;;5075878;28;20442;-87
2023/07/26 12:40:48;;;;;;;1.97;1.63;;;24.20;93.30;;;;;;5075853;28;20532;-87
2023/07/26 12:43:26;;;;;;;3.23;1.40;;;24.20;93.30;;;;;;5075752;28;20797;-87
2023/07/26 12:45:53;;;;;;;2.20;1.60;;;24.10;93.30;;;;;;5076155;28;20450;-87
2023/07/26 12:48:21;;;;;;;6.60;1.83;;;24.10;93.30;;;;;;5075674;28;20449;-86
2023/07/26 12:50:47;;;;;;;3.60;1.83;;;24.10;93.20;;;;;;5075386;28;20935;-87
2023/07/26 12:53:14;;;;;;;2.80;1.80;;;24.10;93.40;;;;;;5075628;28;20445;-87